Time;durP1;ratioP1;P1;durP2;ratioP2;P2;SDS_P1;SDS_P2;PMS_P1;PMS_P2;Temp;Humidity;BMP_temperature;BMP_pressure;BME280_temperature;BME280_humidity;BME280_pressure;Samples;Min_cycle;Max_cycle;Signal;HPM_P1;HPM_P2
2023/10/21 00:00:35;;;;;;;5.53;1.80;;;;;;;;;;5024594;28;20370;-55
2023/10/21 00:03:00;;;;;;;4.38;1.67;;;;;;;;;;5021451;28;20800;-55
2023/10/21 00:05:27;;;;;;;4.70;2.03;;;;;;;;;;5018274;28;20114;-54
2023/10/21 00:07:52;;;;;;;3.53;1.73;;;;;;;;;;5024206;28;20304;-55
2023/10/21 00:10:17;;;;;;;4.10;1.83;;;;;;;;;;5022994;28;20129;-56
2023/10/21 00:12:45;;;;;;;4.32;1.90;;;;;;;;;;5023540;28;20280;-55
2023/10/21 00:15:11;;;;;;;4.43;1.80;;;;;;;;;;5009160;28;20037;-55
2023/10/21 00:17:36;;;;;;;3.53;1.88;;;;;;;;;;5024304;28;20032;-54
2023/10/21 00:20:03;;;;;;;3.53;2.00;;;;;;;;;;5024541;28;20054;-55
2023/10/21 00:22:28;;;;;;;4.65;1.90;;;;;;;;;;5024142;28;20370;-54
2023/10/21 00:24:53;;;;;;;4.32;2.10;;;;;;;;;;5015697;28;20484;-56
2023/10/21 00:27:19;;;;;;;5.87;1.80;;;;;;;;;;5016375;28;20361;-53
2023/10/21 00:29:44;;;;;;;3.60;2.00;;;;;;;;;;5013860;28;20288;-54
2023/10/21 00:32:09;;;;;;;4.25;1.90;;;;;;;;;;5015053;28;20508;-54
2023/10/21 00:34:38;;;;;;;4.30;2.03;;;;;;;;;;5016749;28;20048;-55
2023/10/21 00:37:07;;;;;;;2.85;1.85;;;;;;;;;;5015398;28;20026;-54
2023/10/21 00:39:36;;;;;;;5.22;2.00;;;;;;;;;;5017572;28;20470;-54
2023/10/21 00:42:01;;;;;;;3.25;1.83;;;;;;;;;;5014624;28;20131;-54
2023/10/21 00:44:26;;;;;;;2.83;1.80;;;;;;;;;;5014063;28;20029;-55
2023/10/21 00:46:52;;;;;;;5.47;2.10;;;;;;;;;;5013756;28;20485;-55
2023/10/21 00:49:17;;;;;;;4.15;2.13;;;;;;;;;;5023925;28;20020;-55
2023/10/21 00:51:42;;;;;;;4.28;2.00;;;;;;;;;;5018677;28;20026;-54
2023/10/21 00:54:08;;;;;;;3.83;2.00;;;;;;;;;;5024438;28;20464;-55
2023/10/21 00:56:33;;;;;;;4.07;1.80;;;;;;;;;;5023701;28;20298;-55
2023/10/21 00:58:58;;;;;;;2.97;1.90;;;;;;;;;;5023059;28;20402;-56
2023/10/21 01:01:23;;;;;;;3.67;2.22;;;;;;;;;;5023691;28;20033;-55
2023/10/21 01:03:49;;;;;;;4.37;1.90;;;;;;;;;;5019997;28;20108;-55
2023/10/21 01:06:14;;;;;;;4.40;1.77;;;;;;;;;;5023133;28;20319;-54
2023/10/21 01:08:43;;;;;;;3.47;1.85;;;;;;;;;;5027037;28;20762;-55
2023/10/21 01:11:09;;;;;;;3.55;1.83;;;;;;;;;;5017533;28;20788;-56
2023/10/21 01:13:34;;;;;;;3.13;2.10;;;;;;;;;;5027304;28;20013;-55
2023/10/21 01:16:00;;;;;;;5.55;2.35;;;;;;;;;;5027153;28;20029;-55
2023/10/21 01:18:43;;;;;;;4.55;1.90;;;;;;;;;;5024942;28;20021;-54
2023/10/21 01:21:09;;;;;;;4.18;2.13;;;;;;;;;;5022559;28;20044;-55
2023/10/21 01:23:35;;;;;;;3.78;2.00;;;;;;;;;;5023193;28;20030;-54
2023/10/21 01:26:00;;;;;;;3.50;1.88;;;;;;;;;;5027892;28;20057;-54
2023/10/21 01:28:26;;;;;;;3.88;1.80;;;;;;;;;;5026537;28;20037;-55
2023/10/21 01:30:51;;;;;;;5.78;2.60;;;;;;;;;;5027574;28;20560;-54
2023/10/21 01:33:16;;;;;;;4.47;2.00;;;;;;;;;;5017473;28;20037;-54
2023/10/21 01:35:43;;;;;;;4.80;2.10;;;;;;;;;;5026855;28;20049;-55
2023/10/21 01:38:09;;;;;;;4.68;2.40;;;;;;;;;;5027104;28;20268;-56
2023/10/21 01:40:35;;;;;;;4.07;2.33;;;;;;;;;;5027749;28;20056;-54
2023/10/21 01:43:00;;;;;;;4.20;2.08;;;;;;;;;;5026827;28;20076;-55
2023/10/21 01:45:26;;;;;;;3.28;2.08;;;;;;;;;;5026654;28;20065;-55
2023/10/21 01:47:51;;;;;;;3.88;1.90;;;;;;;;;;5021875;28;20392;-55
2023/10/21 01:50:16;;;;;;;3.97;2.20;;;;;;;;;;5024497;28;20025;-55
2023/10/21 01:52:41;;;;;;;6.67;2.23;;;;;;;;;;5023021;28;20117;-56
2023/10/21 01:55:08;;;;;;;5.72;2.38;;;;;;;;;;5019909;28;20861;-54
2023/10/21 01:57:33;;;;;;;4.15;2.20;;;;;;;;;;5025306;28;20104;-56
2023/10/21 01:59:59;;;;;;;3.47;1.85;;;;;;;;;;5026499;28;20185;-55
2023/10/21 02:02:25;;;;;;;3.40;2.10;;;;;;;;;;5026600;28;20096;-57
2023/10/21 02:04:51;;;;;;;4.30;2.15;;;;;;;;;;5025933;28;20071;-55
2023/10/21 02:07:16;;;;;;;3.80;2.10;;;;;;;;;;5025852;28;20032;-55
2023/10/21 02:09:41;;;;;;;5.07;2.05;;;;;;;;;;5018102;28;20347;-55
2023/10/21 02:12:07;;;;;;;3.58;2.13;;;;;;;;;;5026386;28;20026;-56
2023/10/21 02:14:32;;;;;;;5.80;2.15;;;;;;;;;;5041785;28;20487;-53
2023/10/21 02:16:57;;;;;;;3.95;2.00;;;;;;;;;;5025826;28;20111;-54
2023/10/21 02:19:24;;;;;;;4.35;2.45;;;;;;;;;;5024787;28;20124;-56
2023/10/21 02:21:50;;;;;;;4.13;2.00;;;;;;;;;;5018922;28;20037;-54
2023/10/21 02:24:15;;;;;;;6.63;2.30;;;;;;;;;;5024745;28;20043;-57
2023/10/21 02:26:41;;;;;;;3.37;2.07;;;;;;;;;;5007028;28;20057;-54
2023/10/21 02:29:06;;;;;;;5.30;2.63;;;;;;;;;;5021307;28;20294;-55
2023/10/21 02:31:31;;;;;;;4.07;2.30;;;;;;;;;;5021562;28;20038;-54
2023/10/21 02:33:57;;;;;;;3.40;2.17;;;;;;;;;;5021766;28;20072;-53
2023/10/21 02:36:24;;;;;;;4.15;2.22;;;;;;;;;;5017622;28;20288;-55
2023/10/21 02:38:51;;;;;;;4.75;2.50;;;;;;;;;;5033266;28;20041;-54
2023/10/21 02:41:16;;;;;;;4.38;1.90;;;;;;;;;;5026620;28;20030;-54
2023/10/21 02:43:41;;;;;;;4.07;2.13;;;;;;;;;;5039932;28;20084;-53
2023/10/21 02:46:08;;;;;;;4.10;2.40;;;;;;;;;;5020907;28;20338;-54
2023/10/21 02:48:33;;;;;;;4.35;2.10;;;;;;;;;;5026672;28;20839;-53
2023/10/21 02:51:00;;;;;;;3.55;2.10;;;;;;;;;;5012268;28;20029;-55
2023/10/21 02:53:25;;;;;;;4.20;2.40;;;;;;;;;;5025415;28;20498;-54
2023/10/21 02:55:50;;;;;;;4.88;2.10;;;;;;;;;;5025740;28;20048;-54
2023/10/21 02:58:17;;;;;;;7.15;2.58;;;;;;;;;;5025032;28;20030;-53
2023/10/21 03:00:42;;;;;;;4.18;2.38;;;;;;;;;;5025579;28;20037;-54
2023/10/21 03:03:07;;;;;;;5.30;2.08;;;;;;;;;;5025478;28;20029;-54
2023/10/21 03:05:32;;;;;;;4.25;2.45;;;;;;;;;;5025284;28;20037;-53
2023/10/21 03:07:58;;;;;;;3.83;2.30;;;;;;;;;;5025279;28;20083;-53
2023/10/21 03:10:23;;;;;;;4.22;2.30;;;;;;;;;;5025527;28;20268;-54
2023/10/21 03:12:48;;;;;;;7.07;2.47;;;;;;;;;;5025846;28;20111;-53
2023/10/21 03:15:13;;;;;;;3.38;2.00;;;;;;;;;;5024746;28;20041;-53
2023/10/21 03:17:39;;;;;;;3.90;2.00;;;;;;;;;;5024450;28;20095;-55
2023/10/21 03:20:06;;;;;;;3.77;2.50;;;;;;;;;;5023596;28;20038;-54
2023/10/21 03:22:31;;;;;;;7.00;2.50;;;;;;;;;;5023379;28;20272;-54
2023/10/21 03:24:56;;;;;;;3.35;2.20;;;;;;;;;;5022359;28;20036;-54
2023/10/21 03:27:22;;;;;;;4.25;2.20;;;;;;;;;;5023814;28;20026;-55
2023/10/21 03:29:47;;;;;;;4.30;2.10;;;;;;;;;;5022858;28;20091;-55
2023/10/21 03:32:12;;;;;;;6.20;2.40;;;;;;;;;;5021496;28;20668;-54
2023/10/21 03:34:37;;;;;;;3.28;2.15;;;;;;;;;;5024085;28;20376;-55
2023/10/21 03:37:03;;;;;;;4.80;2.40;;;;;;;;;;5015532;28;20521;-55
2023/10/21 03:39:28;;;;;;;5.47;2.50;;;;;;;;;;5025069;28;20276;-54
2023/10/21 03:41:53;;;;;;;4.67;2.30;;;;;;;;;;5020578;28;20493;-54
2023/10/21 03:44:19;;;;;;;4.90;2.20;;;;;;;;;;5037615;28;20299;-54
2023/10/21 03:46:45;;;;;;;3.00;2.00;;;;;;;;;;5022837;28;20021;-54
2023/10/21 03:49:10;;;;;;;4.47;2.33;;;;;;;;;;5024628;28;20033;-54
2023/10/21 03:51:36;;;;;;;3.72;2.20;;;;;;;;;;5023706;28;20481;-53
2023/10/21 03:54:01;;;;;;;5.05;2.30;;;;;;;;;;5021516;28;20158;-53
2023/10/21 03:56:27;;;;;;;4.25;2.20;;;;;;;;;;5024219;28;20033;-58
2023/10/21 03:58:52;;;;;;;3.38;2.15;;;;;;;;;;5024708;28;20029;-54
2023/10/21 04:01:20;;;;;;;4.93;2.40;;;;;;;;;;5023716;28;20726;-55
2023/10/21 04:03:45;;;;;;;3.83;2.10;;;;;;;;;;5018639;28;20288;-55
2023/10/21 04:06:13;;;;;;;3.37;2.03;;;;;;;;;;5023540;28;20482;-57
2023/10/21 04:08:38;;;;;;;4.10;2.33;;;;;;;;;;5009130;28;20334;-55
2023/10/21 04:11:04;;;;;;;5.13;2.60;;;;;;;;;;5024962;28;20026;-56
2023/10/21 04:13:29;;;;;;;3.83;2.15;;;;;;;;;;5018994;28;20661;-55
2023/10/21 04:15:55;;;;;;;4.40;2.25;;;;;;;;;;5019098;28;20836;-56
2023/10/21 04:18:20;;;;;;;4.15;2.30;;;;;;;;;;5023118;28;20336;-54
2023/10/21 04:20:46;;;;;;;4.28;2.60;;;;;;;;;;5024382;28;20120;-56
2023/10/21 04:23:12;;;;;;;4.28;2.10;;;;;;;;;;5022981;28;20022;-55
2023/10/21 04:25:37;;;;;;;3.30;2.00;;;;;;;;;;5013503;28;20453;-54
2023/10/21 04:28:02;;;;;;;4.03;2.22;;;;;;;;;;5022183;28;20025;-54
2023/10/21 04:30:29;;;;;;;5.05;2.22;;;;;;;;;;5020569;28;20061;-55
2023/10/21 04:32:54;;;;;;;4.15;2.25;;;;;;;;;;5019706;28;20085;-55
2023/10/21 04:35:19;;;;;;;4.07;2.20;;;;;;;;;;5005735;28;20053;-55
2023/10/21 04:37:45;;;;;;;6.43;2.30;;;;;;;;;;5006327;28;20096;-54
2023/10/21 04:40:11;;;;;;;5.57;2.38;;;;;;;;;;5017702;28;20038;-54
2023/10/21 04:42:37;;;;;;;3.58;2.22;;;;;;;;;;5027866;28;20025;-56
2023/10/21 04:45:02;;;;;;;3.85;2.42;;;;;;;;;;5024857;28;20043;-54
2023/10/21 04:47:28;;;;;;;5.68;2.30;;;;;;;;;;5014489;28;20041;-53
2023/10/21 04:49:53;;;;;;;3.80;2.13;;;;;;;;;;5028208;28;20069;-56
2023/10/21 04:52:19;;;;;;;4.68;2.15;;;;;;;;;;5026349;28;20102;-53
2023/10/21 04:54:44;;;;;;;4.18;2.03;;;;;;;;;;5027538;28;20068;-54
2023/10/21 04:57:09;;;;;;;4.07;2.15;;;;;;;;;;5021572;28;20056;-53
2023/10/21 04:59:35;;;;;;;3.33;1.83;;;;;;;;;;5027231;28;20056;-55
2023/10/21 05:02:00;;;;;;;3.05;2.00;;;;;;;;;;5022078;28;20528;-54
2023/10/21 05:04:25;;;;;;;4.78;2.28;;;;;;;;;;5024188;28;20034;-56
2023/10/21 05:06:50;;;;;;;4.80;2.33;;;;;;;;;;5015226;28;20038;-56
2023/10/21 05:09:16;;;;;;;5.78;2.40;;;;;;;;;;5019950;28;20296;-55
2023/10/21 05:11:41;;;;;;;4.30;1.95;;;;;;;;;;5018688;28;20030;-54
2023/10/21 05:14:07;;;;;;;4.03;2.13;;;;;;;;;;5021186;28;20431;-53
2023/10/21 05:16:32;;;;;;;2.90;1.90;;;;;;;;;;5018413;28;20512;-54
2023/10/21 05:18:57;;;;;;;2.97;1.87;;;;;;;;;;5020116;28;20284;-55
2023/10/21 05:21:22;;;;;;;3.90;1.95;;;;;;;;;;5026596;28;20283;-55
2023/10/21 05:23:48;;;;;;;3.97;2.20;;;;;;;;;;5019680;28;20026;-57
2023/10/21 05:26:13;;;;;;;3.33;1.83;;;;;;;;;;5017561;28;20116;-56
2023/10/21 05:28:39;;;;;;;5.25;2.08;;;;;;;;;;5023491;28;20280;-56
2023/10/21 05:31:04;;;;;;;4.82;2.15;;;;;;;;;;5018165;28;20040;-55
2023/10/21 05:33:29;;;;;;;2.85;1.85;;;;;;;;;;5019821;28;20050;-56
2023/10/21 05:35:58;;;;;;;4.90;2.40;;;;;;;;;;5017071;28;20513;-56
2023/10/21 05:38:24;;;;;;;3.47;1.92;;;;;;;;;;5024863;28;20276;-56
2023/10/21 05:40:49;;;;;;;3.53;2.00;;;;;;;;;;5020789;28;20045;-55
2023/10/21 05:43:15;;;;;;;4.05;2.20;;;;;;;;;;5026025;28;20382;-57
2023/10/21 05:45:40;;;;;;;4.20;2.13;;;;;;;;;;5026044;28;20207;-56
2023/10/21 05:48:05;;;;;;;4.13;2.13;;;;;;;;;;5021775;28;20299;-55
2023/10/21 05:50:30;;;;;;;4.38;1.98;;;;;;;;;;5019601;28;20792;-55
2023/10/21 05:52:56;;;;;;;3.90;1.92;;;;;;;;;;5021316;28;20026;-57
2023/10/21 05:55:21;;;;;;;4.45;2.40;;;;;;;;;;5019596;28;20515;-56
2023/10/21 05:57:46;;;;;;;3.63;2.10;;;;;;;;;;5021996;28;20037;-57
2023/10/21 06:00:12;;;;;;;3.35;2.55;;;;;;;;;;5019027;28;20607;-57
2023/10/21 06:02:37;;;;;;;3.40;2.35;;;;;;;;;;5020137;28;20401;-55
2023/10/21 06:05:05;;;;;;;4.40;2.13;;;;;;;;;;5022094;28;20075;-55
2023/10/21 06:07:30;;;;;;;3.60;2.20;;;;;;;;;;5020347;28;20120;-55
2023/10/21 06:09:55;;;;;;;3.20;2.08;;;;;;;;;;5021109;28;20439;-55
2023/10/21 06:12:21;;;;;;;4.87;2.10;;;;;;;;;;5017274;28;20377;-57
2023/10/21 06:14:47;;;;;;;4.75;2.13;;;;;;;;;;5026039;28;20411;-55
2023/10/21 06:17:12;;;;;;;4.25;2.05;;;;;;;;;;5024546;28;20033;-56
2023/10/21 06:19:38;;;;;;;5.55;2.55;;;;;;;;;;5020923;28;20037;-55
2023/10/21 06:22:03;;;;;;;4.63;2.37;;;;;;;;;;5023377;28;20034;-55
2023/10/21 06:24:29;;;;;;;8.27;2.47;;;;;;;;;;5023883;28;20292;-56
2023/10/21 06:26:55;;;;;;;3.97;2.28;;;;;;;;;;5021388;28;20050;-56
2023/10/21 06:29:23;;;;;;;5.53;2.28;;;;;;;;;;5023584;28;20539;-57
2023/10/21 06:31:48;;;;;;;5.03;2.05;;;;;;;;;;5023762;28;20104;-56
2023/10/21 06:34:13;;;;;;;4.60;2.10;;;;;;;;;;5023551;28;20378;-55
2023/10/21 06:36:39;;;;;;;7.37;2.70;;;;;;;;;;5020864;28;20311;-57
2023/10/21 06:39:04;;;;;;;3.90;2.17;;;;;;;;;;5035150;28;20323;-57
2023/10/21 06:41:30;;;;;;;4.25;2.10;;;;;;;;;;5020983;28;20961;-57
2023/10/21 06:43:58;;;;;;;4.90;2.40;;;;;;;;;;5019995;28;20453;-57
2023/10/21 06:46:24;;;;;;;3.10;1.90;;;;;;;;;;5020236;28;20040;-56
2023/10/21 06:48:49;;;;;;;4.45;2.47;;;;;;;;;;5022666;28;20037;-57
2023/10/21 06:51:14;;;;;;;3.90;2.23;;;;;;;;;;5017790;28;20041;-55
2023/10/21 06:53:40;;;;;;;3.28;2.10;;;;;;;;;;5022449;28;20307;-56
2023/10/21 06:56:14;;;;;;;5.20;2.28;;;;;;;;;;5017575;28;20725;-57
2023/10/21 06:58:40;;;;;;;3.47;2.10;;;;;;;;;;5011476;28;20037;-56
2023/10/21 07:01:05;;;;;;;4.22;2.10;;;;;;;;;;5033803;28;20030;-56
2023/10/21 07:03:30;;;;;;;4.22;1.98;;;;;;;;;;5020591;28;20041;-56
2023/10/21 07:05:56;;;;;;;3.60;2.00;;;;;;;;;;5016795;28;20146;-57
2023/10/21 07:08:23;;;;;;;4.75;2.15;;;;;;;;;;5022138;28;20618;-56
2023/10/21 07:10:48;;;;;;;4.32;2.20;;;;;;;;;;5019370;28;20029;-56
2023/10/21 07:13:14;;;;;;;3.53;2.03;;;;;;;;;;5019728;28;20056;-55
2023/10/21 07:15:40;;;;;;;2.97;2.00;;;;;;;;;;5017492;28;20116;-56
2023/10/21 07:18:05;;;;;;;3.30;1.88;;;;;;;;;;5017602;28;20491;-56
2023/10/21 07:20:30;;;;;;;3.95;2.22;;;;;;;;;;5021875;28;20481;-56
2023/10/21 07:22:56;;;;;;;5.20;2.07;;;;;;;;;;5022709;28;20152;-57
2023/10/21 07:25:21;;;;;;;3.53;1.85;;;;;;;;;;5020246;28;20664;-58
2023/10/21 07:27:46;;;;;;;3.85;2.10;;;;;;;;;;5020302;28;20083;-57
2023/10/21 07:30:12;;;;;;;4.07;2.17;;;;;;;;;;5023082;28;20136;-56
2023/10/21 07:32:37;;;;;;;3.95;2.30;;;;;;;;;;5020283;28;20029;-56
2023/10/21 07:35:03;;;;;;;3.75;2.08;;;;;;;;;;5019734;28;20194;-56
2023/10/21 07:37:28;;;;;;;4.68;2.25;;;;;;;;;;5019860;28;20557;-56
2023/10/21 07:39:53;;;;;;;5.65;2.25;;;;;;;;;;5018629;28;20029;-58
2023/10/21 07:42:19;;;;;;;4.93;2.33;;;;;;;;;;5022874;28;20037;-56
2023/10/21 07:44:47;;;;;;;4.53;2.40;;;;;;;;;;5023293;28;20748;-56
2023/10/21 07:47:12;;;;;;;5.90;2.28;;;;;;;;;;5021852;28;20479;-58
2023/10/21 07:49:38;;;;;;;5.78;2.20;;;;;;;;;;5020639;28;20087;-57
2023/10/21 07:52:03;;;;;;;4.03;2.20;;;;;;;;;;5021727;28;20554;-58
2023/10/21 07:54:28;;;;;;;8.05;2.58;;;;;;;;;;5022843;28;20272;-58
2023/10/21 07:56:54;;;;;;;5.07;2.30;;;;;;;;;;5019988;28;20124;-57
2023/10/21 07:59:19;;;;;;;4.35;2.30;;;;;;;;;;5019764;28;20365;-56
2023/10/21 08:01:45;;;;;;;4.30;2.25;;;;;;;;;;5012143;28;20042;-55
2023/10/21 08:04:10;;;;;;;6.13;2.22;;;;;;;;;;5008516;28;20037;-56
2023/10/21 08:06:36;;;;;;;5.45;2.90;;;;;;;;;;5008133;28;20030;-56
2023/10/21 08:09:01;;;;;;;4.50;2.20;;;;;;;;;;5008087;28;20033;-56
2023/10/21 08:11:27;;;;;;;3.92;2.30;;;;;;;;;;5008435;28;20041;-58
2023/10/21 08:13:53;;;;;;;8.52;4.00;;;;;;;;;;5025455;28;20064;-56
2023/10/21 08:16:18;;;;;;;5.03;2.53;;;;;;;;;;5009402;28;20049;-57
2023/10/21 08:18:43;;;;;;;6.07;2.63;;;;;;;;;;5010676;28;20280;-56
2023/10/21 08:21:08;;;;;;;9.85;3.53;;;;;;;;;;5008129;28;20665;-55
2023/10/21 08:23:34;;;;;;;5.90;2.87;;;;;;;;;;5008294;28;20050;-56
2023/10/21 08:26:00;;;;;;;6.30;2.85;;;;;;;;;;5008689;28;20352;-56
2023/10/21 08:28:25;;;;;;;5.57;3.13;;;;;;;;;;5008764;28;20065;-56
2023/10/21 08:30:50;;;;;;;6.95;3.17;;;;;;;;;;5007898;28;20037;-55
2023/10/21 08:33:16;;;;;;;7.85;3.22;;;;;;;;;;5010211;28;20034;-56
2023/10/21 08:35:41;;;;;;;8.23;2.80;;;;;;;;;;5014428;28;20137;-58
2023/10/21 08:38:07;;;;;;;9.68;3.25;;;;;;;;;;5016807;28;20026;-57
2023/10/21 08:40:35;;;;;;;7.87;3.33;;;;;;;;;;5016285;28;20038;-57
2023/10/21 08:43:01;;;;;;;8.63;3.25;;;;;;;;;;5016330;28;20663;-58
2023/10/21 08:45:26;;;;;;;9.88;3.30;;;;;;;;;;5018074;28;20017;-58
2023/10/21 08:47:51;;;;;;;8.98;3.25;;;;;;;;;;5023283;28;20019;-58
2023/10/21 08:50:17;;;;;;;7.32;2.90;;;;;;;;;;5015157;28;20100;-58
2023/10/21 08:52:42;;;;;;;6.35;3.00;;;;;;;;;;5015650;28;20120;-57
2023/10/21 08:55:09;;;;;;;10.18;3.30;;;;;;;;;;5011772;28;20600;-57
2023/10/21 08:57:36;;;;;;;8.00;3.30;;;;;;;;;;5017422;28;20012;-56
2023/10/21 09:00:04;;;;;;;6.32;3.10;;;;;;;;;;5014930;28;20048;-57
2023/10/21 09:02:29;;;;;;;6.88;3.17;;;;;;;;;;5014501;28;20016;-57
2023/10/21 09:04:54;;;;;;;7.63;3.03;;;;;;;;;;5016327;28;20512;-58
2023/10/21 09:07:19;;;;;;;6.80;3.17;;;;;;;;;;5013756;28;20284;-58
2023/10/21 09:09:45;;;;;;;6.68;3.15;;;;;;;;;;5016635;28;20790;-57
2023/10/21 09:12:11;;;;;;;8.00;3.13;;;;;;;;;;5015296;28;20108;-57
2023/10/21 09:14:55;;;;;;;8.20;3.03;;;;;;;;;;5015385;28;20356;-56
2023/10/21 09:17:44;;;;;;;9.85;2.70;;;;;;;;;;5010406;28;20124;-58
2023/10/21 09:20:11;;;;;;;9.07;2.88;;;;;;;;;;5015790;28;20048;-57
2023/10/21 09:22:36;;;;;;;5.90;2.78;;;;;;;;;;5017356;28;20056;-57
2023/10/21 09:25:08;;;;;;;5.28;2.45;;;;;;;;;;5018420;28;20050;-57
2023/10/21 09:27:34;;;;;;;9.23;2.92;;;;;;;;;;5018341;28;20116;-57
2023/10/21 09:30:00;;;;;;;6.47;3.17;;;;;;;;;;5022433;28;20116;-56
2023/10/21 09:32:28;;;;;;;9.98;2.70;;;;;;;;;;5022909;28;20285;-58
2023/10/21 09:34:53;;;;;;;7.10;2.90;;;;;;;;;;5022840;28;20040;-58
2023/10/21 09:37:19;;;;;;;9.63;3.00;;;;;;;;;;5023229;28;20405;-56
2023/10/21 09:39:46;;;;;;;13.23;2.63;;;;;;;;;;5026774;28;20379;-58
2023/10/21 09:42:12;;;;;;;8.68;2.10;;;;;;;;;;5038474;28;20276;-56
2023/10/21 09:44:38;;;;;;;12.60;2.47;;;;;;;;;;5024298;28;20041;-57
2023/10/21 09:47:07;;;;;;;16.98;1.85;;;;;;;;;;5022640;28;20037;-56
2023/10/21 09:49:36;;;;;;;9.70;1.90;;;;;;;;;;5022817;28;20035;-60
2023/10/21 09:52:11;;;;;;;9.73;2.28;;;;;;;;;;5023445;28;20037;-57
2023/10/21 09:54:43;;;;;;;9.43;2.00;;;;;;;;;;5020854;28;20037;-56
2023/10/21 09:57:11;;;;;;;9.90;2.05;;;;;;;;;;5023704;28;20042;-56
2023/10/21 09:59:37;;;;;;;14.90;2.45;;;;;;;;;;5022101;28;20033;-55
2023/10/21 10:02:04;;;;;;;9.40;1.90;;;;;;;;;;5021141;28;20037;-56
2023/10/21 10:04:29;;;;;;;7.60;2.13;;;;;;;;;;5020279;28;20049;-55
2023/10/21 10:06:57;;;;;;;10.88;1.95;;;;;;;;;;5027076;28;20099;-55
2023/10/21 10:09:22;;;;;;;8.38;2.03;;;;;;;;;;5020817;28;20026;-55
2023/10/21 10:11:47;;;;;;;10.52;2.55;;;;;;;;;;5003820;28;20465;-55
2023/10/21 10:14:14;;;;;;;12.65;2.10;;;;;;;;;;5024579;28;20030;-55
2023/10/21 10:16:40;;;;;;;9.43;2.10;;;;;;;;;;5021506;28;20042;-54
2023/10/21 10:19:05;;;;;;;10.00;2.35;;;;;;;;;;5017668;28;20026;-59
2023/10/21 10:21:32;;;;;;;11.53;2.07;;;;;;;;;;5018985;28;20143;-56
2023/10/21 10:24:00;;;;;;;12.38;2.28;;;;;;;;;;5017949;28;20283;-55
2023/10/21 10:26:38;;;;;;;12.48;2.20;;;;;;;;;;5018256;28;20038;-56
2023/10/21 10:29:16;;;;;;;13.57;2.35;;;;;;;;;;5020721;28;20678;-55
2023/10/21 10:31:44;;;;;;;9.93;2.13;;;;;;;;;;5020200;28;20154;-57
2023/10/21 10:34:10;;;;;;;14.82;2.50;;;;;;;;;;5019386;28;20076;-55
2023/10/21 10:36:35;;;;;;;15.82;2.50;;;;;;;;;;5020053;28;20059;-55
2023/10/21 10:39:01;;;;;;;15.23;2.17;;;;;;;;;;5019278;28;20029;-56
2023/10/21 10:41:27;;;;;;;12.50;1.92;;;;;;;;;;5018998;28;20466;-55
2023/10/21 10:43:56;;;;;;;8.68;2.08;;;;;;;;;;5020809;28;20051;-55
2023/10/21 10:46:24;;;;;;;12.80;2.55;;;;;;;;;;5020296;28;20025;-56
2023/10/21 10:48:49;;;;;;;7.40;2.00;;;;;;;;;;5019794;28;20036;-58
2023/10/21 10:51:18;;;;;;;15.85;2.78;;;;;;;;;;5020062;28;20100;-57
2023/10/21 10:53:48;;;;;;;8.30;2.00;;;;;;;;;;5019256;28;20021;-57
2023/10/21 10:56:19;;;;;;;12.50;2.00;;;;;;;;;;5018302;28;20052;-57
2023/10/21 10:58:47;;;;;;;12.63;2.08;;;;;;;;;;5017038;28;20105;-57
2023/10/21 11:01:25;;;;;;;14.82;2.17;;;;;;;;;;5017372;28;20033;-56
2023/10/21 11:03:55;;;;;;;10.77;2.05;;;;;;;;;;5012088;28;20037;-56
2023/10/21 11:06:21;;;;;;;12.75;2.38;;;;;;;;;;5012404;28;20022;-55
2023/10/21 11:08:46;;;;;;;9.63;2.00;;;;;;;;;;5018591;28;20045;-56
2023/10/21 11:11:11;;;;;;;13.23;2.93;;;;;;;;;;5020054;28;20091;-56
2023/10/21 11:13:37;;;;;;;12.07;1.85;;;;;;;;;;5018455;28;20420;-56
2023/10/21 11:16:05;;;;;;;12.25;2.33;;;;;;;;;;5019199;28;20040;-56
2023/10/21 11:18:30;;;;;;;8.05;1.60;;;;;;;;;;5017688;28;20057;-57
2023/10/21 11:20:57;;;;;;;13.15;2.30;;;;;;;;;;5017099;28;21225;-57
2023/10/21 11:23:26;;;;;;;14.05;2.30;;;;;;;;;;5017922;28;20064;-56
2023/10/21 11:25:51;;;;;;;9.70;1.97;;;;;;;;;;5015778;28;20077;-56
2023/10/21 11:28:17;;;;;;;11.43;1.95;;;;;;;;;;5019125;28;20060;-56
2023/10/21 11:30:43;;;;;;;11.65;2.10;;;;;;;;;;5017555;28;20388;-57
2023/10/21 11:33:10;;;;;;;9.63;2.28;;;;;;;;;;5016363;28;20037;-56
2023/10/21 11:35:35;;;;;;;8.73;1.58;;;;;;;;;;5019132;28;20041;-56
2023/10/21 11:38:01;;;;;;;9.30;2.17;;;;;;;;;;5011713;28;20052;-56
2023/10/21 11:40:26;;;;;;;12.13;2.38;;;;;;;;;;5017150;28;20041;-55
2023/10/21 11:42:58;;;;;;;9.17;1.83;;;;;;;;;;5025146;28;20056;-57
2023/10/21 11:45:23;;;;;;;9.63;1.77;;;;;;;;;;5015501;28;20296;-56
2023/10/21 11:47:49;;;;;;;14.63;2.17;;;;;;;;;;5010738;28;20099;-56
2023/10/21 11:50:15;;;;;;;8.80;1.80;;;;;;;;;;5014316;28;20653;-58
2023/10/21 11:52:42;;;;;;;7.85;2.10;;;;;;;;;;5017048;28;20044;-55
2023/10/21 12:09:51;;;;;;;6.80;1.60;;;;;;;;;;5015370;28;20552;-57
2023/10/21 12:11:51;;;;;;;5.53;1.83;;;;;;;;;;5015671;28;20216;-55
2023/10/21 12:19:52;;;;;;;6.30;1.63;;;;;;;;;;4968562;28;20600;-57
2023/10/21 12:35:52;;;;;;;10.35;1.60;;;;;;;;;;5015419;28;21097;-55
2023/10/21 12:43:36;;;;;;;10.52;1.85;;;;;;;;;;5011467;28;20392;-56
2023/10/21 12:46:22;;;;;;;7.25;1.85;;;;;;;;;;5014628;28;20053;-56
2023/10/21 12:48:57;;;;;;;6.90;1.58;;;;;;;;;;5015194;28;20735;-55
2023/10/21 12:51:23;;;;;;;8.40;1.70;;;;;;;;;;5015196;28;20506;-55
2023/10/21 12:53:49;;;;;;;7.40;1.92;;;;;;;;;;5015439;28;20045;-55
2023/10/21 12:56:14;;;;;;;10.75;1.73;;;;;;;;;;5014698;28;20045;-56
2023/10/21 12:58:40;;;;;;;9.13;2.05;;;;;;;;;;5017189;28;20650;-54
2023/10/21 13:01:09;;;;;;;9.18;1.80;;;;;;;;;;5016975;28;20099;-57
2023/10/21 13:03:35;;;;;;;6.60;1.42;;;;;;;;;;5019777;28;20165;-57
2023/10/21 13:06:00;;;;;;;11.27;2.20;;;;;;;;;;5020149;28;20041;-57
2023/10/21 13:08:26;;;;;;;9.13;2.10;;;;;;;;;;5016536;28;20064;-55
2023/10/21 13:10:53;;;;;;;11.25;2.22;;;;;;;;;;5017511;28;20140;-57
2023/10/21 13:13:21;;;;;;;10.55;2.45;;;;;;;;;;4995438;28;20043;-55
2023/10/21 13:15:46;;;;;;;11.20;1.92;;;;;;;;;;5019600;28;20049;-56
2023/10/21 13:18:12;;;;;;;9.15;1.73;;;;;;;;;;5018024;28;20029;-55
2023/10/21 13:20:38;;;;;;;10.88;1.92;;;;;;;;;;5020040;28;20033;-55
2023/10/21 13:23:04;;;;;;;13.23;2.08;;;;;;;;;;5013498;28;20040;-54
2023/10/21 13:25:29;;;;;;;6.90;1.50;;;;;;;;;;5018650;28;20045;-57
2023/10/21 13:27:54;;;;;;;7.30;1.83;;;;;;;;;;5020729;28;20132;-57
2023/10/21 13:30:20;;;;;;;7.90;2.10;;;;;;;;;;5019119;28;21155;-57
2023/10/21 13:32:48;;;;;;;9.97;1.80;;;;;;;;;;5018703;28;20069;-58
2023/10/21 13:35:14;;;;;;;6.35;1.80;;;;;;;;;;5019198;28;20342;-55
2023/10/21 13:37:40;;;;;;;8.68;1.60;;;;;;;;;;5018701;28;20686;-55
2023/10/21 13:40:16;;;;;;;8.43;1.75;;;;;;;;;;5019545;28;20037;-55
2023/10/21 13:42:44;;;;;;;6.45;1.83;;;;;;;;;;5017328;28;20456;-56
2023/10/21 13:45:19;;;;;;;10.35;1.70;;;;;;;;;;5018643;28;20026;-55
2023/10/21 13:47:44;;;;;;;8.05;1.50;;;;;;;;;;5018284;28;20022;-55
2023/10/21 13:50:15;;;;;;;7.60;1.92;;;;;;;;;;5019219;28;20025;-55
2023/10/21 13:52:40;;;;;;;7.90;1.98;;;;;;;;;;5019127;28;20086;-55
2023/10/21 13:55:06;;;;;;;8.00;1.70;;;;;;;;;;5019234;28;20033;-56
2023/10/21 13:57:31;;;;;;;8.02;1.63;;;;;;;;;;5018059;28;20627;-55
2023/10/21 13:59:56;;;;;;;8.20;2.10;;;;;;;;;;5017434;28;20052;-55
2023/10/21 14:02:22;;;;;;;6.07;1.83;;;;;;;;;;5019831;28;20030;-55
2023/10/21 14:04:47;;;;;;;5.13;1.80;;;;;;;;;;5007675;28;20029;-54
2023/10/21 14:07:13;;;;;;;5.53;1.60;;;;;;;;;;5007274;28;20025;-55
2023/10/21 14:09:38;;;;;;;3.92;1.58;;;;;;;;;;5007274;28;20794;-54
2023/10/21 14:12:04;;;;;;;7.40;1.63;;;;;;;;;;5007038;28;20120;-55
2023/10/21 14:14:29;;;;;;;7.55;1.90;;;;;;;;;;5004944;28;20777;-55
2023/10/21 14:16:55;;;;;;;8.73;1.73;;;;;;;;;;5024912;28;20433;-55
2023/10/21 14:19:22;;;;;;;6.90;1.70;;;;;;;;;;5011520;28;20034;-55
2023/10/21 14:21:47;;;;;;;7.75;1.70;;;;;;;;;;5010675;28;20459;-55
2023/10/21 14:24:13;;;;;;;8.13;1.85;;;;;;;;;;5012519;28;20121;-55
2023/10/21 14:26:38;;;;;;;6.75;1.48;;;;;;;;;;5011827;28;20589;-55
2023/10/21 14:29:04;;;;;;;7.60;1.70;;;;;;;;;;5007275;28;20113;-54
2023/10/21 14:31:29;;;;;;;7.47;1.67;;;;;;;;;;5010029;28;20280;-57
2023/10/21 14:33:56;;;;;;;5.47;1.67;;;;;;;;;;5024987;28;20561;-55
2023/10/21 14:36:21;;;;;;;6.85;1.50;;;;;;;;;;5026405;28;20466;-57
2023/10/21 14:38:47;;;;;;;7.18;2.10;;;;;;;;;;5026535;28;20077;-54
2023/10/21 14:41:12;;;;;;;7.43;2.05;;;;;;;;;;5026834;28;20029;-55
2023/10/21 14:43:38;;;;;;;7.93;1.65;;;;;;;;;;5008118;28;20038;-55
2023/10/21 14:46:07;;;;;;;8.18;2.47;;;;;;;;;;5007255;28;20546;-55
2023/10/21 14:48:33;;;;;;;6.93;2.00;;;;;;;;;;5007018;28;20038;-56
2023/10/21 14:50:58;;;;;;;7.40;2.08;;;;;;;;;;5006693;28;20032;-56
2023/10/21 14:53:23;;;;;;;6.30;1.90;;;;;;;;;;5010596;28;20053;-55
2023/10/21 14:55:49;;;;;;;8.47;1.70;;;;;;;;;;5025662;28;20284;-55
2023/10/21 14:58:17;;;;;;;9.55;2.00;;;;;;;;;;5024983;28;20362;-54
2023/10/21 15:00:42;;;;;;;12.05;2.47;;;;;;;;;;5023818;28;20497;-56
2023/10/21 15:03:09;;;;;;;12.13;2.22;;;;;;;;;;5018455;28;20183;-58
2023/10/21 15:05:35;;;;;;;11.60;2.15;;;;;;;;;;5019686;28;20556;-55
2023/10/21 15:08:00;;;;;;;9.38;1.73;;;;;;;;;;5019652;28;20087;-57
2023/10/21 15:10:25;;;;;;;10.93;1.90;;;;;;;;;;5017669;28;20505;-56
2023/10/21 15:12:51;;;;;;;8.30;1.77;;;;;;;;;;5017719;28;20025;-56